Time;durP1;ratioP1;P1;durP2;ratioP2;P2;SDS_P1;SDS_P2;PMS_P1;PMS_P2;Temp;Humidity;BMP_temperature;BMP_pressure;BME280_temperature;BME280_humidity;BME280_pressure;Samples;Min_cycle;Max_cycle;Signal;HPM_P1;HPM_P2
2023/12/29 00:01:17;;;;;;;5.07;1.77;;;;;;;;;;5134685;27;20035;-66
2023/12/29 00:03:42;;;;;;;4.47;1.58;;;;;;;;;;5134583;27;20427;-66
2023/12/29 00:06:08;;;;;;;6.70;2.10;;;;;;;;;;5134751;27;20023;-66
2023/12/29 00:08:33;;;;;;;3.25;1.70;;;;;;;;;;5134246;27;20157;-66
2023/12/29 00:10:59;;;;;;;4.43;1.90;;;;;;;;;;5134447;27;20050;-66
2023/12/29 00:13:25;;;;;;;3.72;2.00;;;;;;;;;;5134555;27;20031;-66
2023/12/29 00:15:54;;;;;;;2.75;1.42;;;;;;;;;;5134288;27;20034;-68
2023/12/29 00:18:20;;;;;;;3.95;1.70;;;;;;;;;;5134453;27;20046;-67
2023/12/29 00:20:45;;;;;;;3.55;1.98;;;;;;;;;;5116045;27;20051;-67
2023/12/29 00:23:11;;;;;;;5.65;2.00;;;;;;;;;;5134216;27;20027;-67
2023/12/29 00:25:37;;;;;;;5.95;1.75;;;;;;;;;;5134382;27;20023;-67
2023/12/29 00:28:03;;;;;;;3.53;1.60;;;;;;;;;;5134282;27;20466;-67
2023/12/29 00:30:29;;;;;;;5.18;1.90;;;;;;;;;;5134269;27;20478;-67
2023/12/29 00:32:55;;;;;;;4.90;1.60;;;;;;;;;;5134074;27;20034;-67
2023/12/29 00:35:20;;;;;;;5.93;1.80;;;;;;;;;;5134189;27;20039;-67
2023/12/29 00:37:46;;;;;;;3.35;1.65;;;;;;;;;;5133831;27;20038;-67
2023/12/29 00:40:12;;;;;;;3.92;1.40;;;;;;;;;;5115248;27;20035;-67
2023/12/29 00:42:37;;;;;;;5.93;2.20;;;;;;;;;;5134042;27;20023;-67
2023/12/29 00:45:04;;;;;;;2.50;1.40;;;;;;;;;;5134101;27;20035;-67
2023/12/29 00:47:29;;;;;;;3.90;1.83;;;;;;;;;;5133624;27;20031;-67
2023/12/29 00:49:55;;;;;;;2.05;1.50;;;;;;;;;;5133301;27;20425;-67
2023/12/29 00:52:20;;;;;;;4.18;1.63;;;;;;;;;;5133407;27;20015;-67
2023/12/29 00:54:45;;;;;;;2.88;1.65;;;;;;;;;;5133735;27;20025;-67
2023/12/29 00:57:11;;;;;;;14.25;1.85;;;;;;;;;;5133794;27;20027;-67
2023/12/29 00:59:40;;;;;;;3.55;1.50;;;;;;;;;;5133826;27;20111;-67
2023/12/29 01:02:06;;;;;;;3.97;1.58;;;;;;;;;;5133677;27;20025;-67
2023/12/29 01:04:31;;;;;;;2.03;1.30;;;;;;;;;;5133765;27;20161;-67
2023/12/29 01:06:57;;;;;;;3.50;1.80;;;;;;;;;;5133478;27;20041;-67
2023/12/29 01:09:22;;;;;;;2.70;1.48;;;;;;;;;;5133385;27;20023;-67
2023/12/29 01:11:48;;;;;;;2.88;1.70;;;;;;;;;;5133321;27;20021;-67
2023/12/29 01:14:13;;;;;;;4.28;1.35;;;;;;;;;;5133180;27;20438;-67
2023/12/29 01:16:40;;;;;;;4.55;1.50;;;;;;;;;;5133589;27;20039;-68
2023/12/29 01:19:05;;;;;;;2.78;1.45;;;;;;;;;;5133616;27;20034;-67
2023/12/29 01:21:34;;;;;;;3.90;1.67;;;;;;;;;;5133263;27;20027;-67
2023/12/29 01:24:07;;;;;;;4.43;1.60;;;;;;;;;;5133688;27;20354;-68
2023/12/29 01:26:36;;;;;;;3.15;1.60;;;;;;;;;;5133588;27;20398;-68
2023/12/29 01:29:02;;;;;;;3.78;1.70;;;;;;;;;;5133540;28;20129;-67
2023/12/29 01:31:31;;;;;;;4.25;1.52;;;;;;;;;;5133496;28;20184;-67
2023/12/29 01:33:56;;;;;;;5.07;1.90;;;;;;;;;;5133230;28;20102;-67
2023/12/29 01:36:22;;;;;;;3.20;1.60;;;;;;;;;;5133314;28;20118;-68
2023/12/29 01:38:47;;;;;;;2.92;1.60;;;;;;;;;;5132915;28;20407;-68
2023/12/29 01:41:14;;;;;;;4.38;1.40;;;;;;;;;;5133346;28;20176;-68
2023/12/29 01:43:54;;;;;;;2.30;1.30;;;;;;;;;;5133238;28;20027;-68
2023/12/29 01:46:20;;;;;;;3.80;1.48;;;;;;;;;;5133032;28;20049;-68
2023/12/29 01:48:45;;;;;;;4.55;1.70;;;;;;;;;;5132867;28;20462;-67
2023/12/29 01:51:11;;;;;;;2.85;1.40;;;;;;;;;;5133509;28;20034;-67
2023/12/29 01:53:38;;;;;;;5.53;1.55;;;;;;;;;;5133049;28;20474;-68
2023/12/29 01:56:03;;;;;;;2.80;1.50;;;;;;;;;;5133165;28;20031;-68
2023/12/29 01:58:30;;;;;;;4.03;1.42;;;;;;;;;;5133298;28;20068;-68
2023/12/29 02:00:55;;;;;;;3.97;1.52;;;;;;;;;;5132968;27;20047;-68
2023/12/29 02:03:21;;;;;;;2.20;1.20;;;;;;;;;;5136606;27;20061;-68
2023/12/29 02:05:47;;;;;;;3.28;1.20;;;;;;;;;;5137247;27;20023;-67
2023/12/29 02:08:13;;;;;;;3.08;1.30;;;;;;;;;;5137032;27;20116;-67
2023/12/29 02:10:39;;;;;;;2.42;1.48;;;;;;;;;;5137086;27;20037;-67
2023/12/29 02:13:04;;;;;;;2.90;1.60;;;;;;;;;;5118584;27;20059;-67
2023/12/29 02:15:29;;;;;;;2.13;1.33;;;;;;;;;;5137009;27;20465;-67
2023/12/29 02:18:02;;;;;;;5.00;1.48;;;;;;;;;;5136661;27;20031;-67
2023/12/29 02:20:29;;;;;;;4.63;1.42;;;;;;;;;;5136969;27;20027;-67
2023/12/29 02:22:55;;;;;;;5.07;1.50;;;;;;;;;;5136736;27;20035;-67
2023/12/29 02:25:20;;;;;;;5.35;1.50;;;;;;;;;;5136854;27;20131;-67
2023/12/29 02:27:58;;;;;;;3.65;1.40;;;;;;;;;;5136762;27;20039;-67
2023/12/29 02:30:39;;;;;;;3.88;1.40;;;;;;;;;;5136895;27;20469;-67
2023/12/29 02:33:07;;;;;;;3.38;1.55;;;;;;;;;;5136458;27;20027;-67
2023/12/29 02:35:37;;;;;;;2.90;1.80;;;;;;;;;;5136548;27;20024;-67
2023/12/29 02:38:02;;;;;;;4.93;1.67;;;;;;;;;;5136604;27;20034;-67
2023/12/29 02:40:28;;;;;;;3.58;1.40;;;;;;;;;;5136361;27;20023;-67
2023/12/29 02:42:53;;;;;;;3.10;1.27;;;;;;;;;;5136363;27;20382;-67
2023/12/29 02:45:19;;;;;;;4.35;1.60;;;;;;;;;;5136488;27;20019;-68
2023/12/29 02:47:44;;;;;;;4.32;1.50;;;;;;;;;;5135965;27;20496;-67
2023/12/29 02:50:10;;;;;;;4.43;1.50;;;;;;;;;;5136324;27;20072;-67
2023/12/29 02:52:36;;;;;;;1.95;1.30;;;;;;;;;;5136107;27;20434;-66
2023/12/29 02:55:03;;;;;;;4.75;1.60;;;;;;;;;;5136075;27;20031;-67
2023/12/29 02:57:28;;;;;;;1.60;1.10;;;;;;;;;;5136235;27;20044;-68
2023/12/29 02:59:54;;;;;;;2.90;1.27;;;;;;;;;;5136182;27;20015;-67
2023/12/29 03:02:19;;;;;;;5.55;1.30;;;;;;;;;;5135826;27;20046;-67
2023/12/29 03:04:45;;;;;;;1.90;1.20;;;;;;;;;;5136127;27;20098;-68
2023/12/29 03:07:10;;;;;;;3.40;1.50;;;;;;;;;;5136011;27;20031;-67
2023/12/29 03:09:35;;;;;;;4.18;1.60;;;;;;;;;;5136048;27;20023;-67
2023/12/29 03:12:01;;;;;;;3.42;1.40;;;;;;;;;;5135832;27;20482;-67
2023/12/29 03:14:26;;;;;;;3.25;1.63;;;;;;;;;;5135822;27;20087;-67
2023/12/29 03:16:52;;;;;;;2.95;1.45;;;;;;;;;;5135404;27;20031;-67
2023/12/29 03:19:17;;;;;;;5.40;1.70;;;;;;;;;;5135816;27;20027;-67
2023/12/29 03:21:42;;;;;;;2.33;1.38;;;;;;;;;;5135780;27;20023;-67
2023/12/29 03:24:08;;;;;;;3.22;1.20;;;;;;;;;;5135769;27;20047;-67
2023/12/29 03:26:33;;;;;;;2.95;1.33;;;;;;;;;;5135620;27;20161;-67
2023/12/29 03:28:59;;;;;;;2.58;1.23;;;;;;;;;;5117144;27;20032;-67
2023/12/29 03:31:24;;;;;;;4.90;1.40;;;;;;;;;;5135426;27;20023;-67
2023/12/29 03:33:49;;;;;;;2.50;1.20;;;;;;;;;;5135468;27;20019;-67
2023/12/29 03:36:15;;;;;;;3.15;1.23;;;;;;;;;;5135322;27;20403;-67
2023/12/29 03:38:40;;;;;;;2.53;1.48;;;;;;;;;;5135151;27;20035;-67
2023/12/29 03:41:06;;;;;;;4.00;1.50;;;;;;;;;;5116865;27;20390;-67
2023/12/29 03:43:31;;;;;;;4.15;1.58;;;;;;;;;;5135262;27;20457;-67
2023/12/29 03:45:57;;;;;;;2.10;1.20;;;;;;;;;;5134790;27;20029;-67
2023/12/29 03:48:22;;;;;;;2.70;1.48;;;;;;;;;;5135076;27;20064;-67
2023/12/29 03:50:47;;;;;;;2.83;1.60;;;;;;;;;;5134884;27;20019;-67
2023/12/29 03:53:14;;;;;;;3.03;1.27;;;;;;;;;;5134915;27;20043;-67
2023/12/29 03:55:41;;;;;;;2.42;1.15;;;;;;;;;;5134937;27;20091;-68
2023/12/29 03:58:06;;;;;;;3.50;1.13;;;;;;;;;;5135043;27;20032;-67
2023/12/29 04:00:32;;;;;;;3.10;1.20;;;;;;;;;;5134949;27;20047;-67
2023/12/29 04:02:57;;;;;;;2.05;1.10;;;;;;;;;;5134838;27;20030;-67
2023/12/29 04:05:22;;;;;;;2.38;1.05;;;;;;;;;;5134809;27;20019;-67
2023/12/29 04:07:48;;;;;;;3.55;1.30;;;;;;;;;;5134808;27;20027;-67
2023/12/29 04:10:13;;;;;;;2.55;1.20;;;;;;;;;;5134868;27;20027;-67
2023/12/29 04:12:39;;;;;;;2.28;1.27;;;;;;;;;;5134739;27;20027;-67
2023/12/29 04:15:05;;;;;;;5.57;1.45;;;;;;;;;;5116028;27;20487;-67
2023/12/29 04:17:30;;;;;;;4.53;1.13;;;;;;;;;;5134595;27;20042;-67
2023/12/29 04:19:56;;;;;;;2.55;1.30;;;;;;;;;;5134696;27;20031;-67
2023/12/29 04:22:22;;;;;;;4.80;1.30;;;;;;;;;;5134375;27;20030;-67
2023/12/29 04:24:47;;;;;;;2.38;1.13;;;;;;;;;;5133910;27;20019;-67
2023/12/29 04:27:14;;;;;;;4.25;1.30;;;;;;;;;;5134495;27;20046;-68
2023/12/29 04:29:39;;;;;;;4.43;1.20;;;;;;;;;;5134208;27;20079;-67
2023/12/29 04:32:05;;;;;;;3.72;1.00;;;;;;;;;;5134393;27;20106;-67
2023/12/29 04:34:30;;;;;;;2.47;1.30;;;;;;;;;;5134249;27;20038;-67
2023/12/29 04:36:56;;;;;;;3.53;1.35;;;;;;;;;;5134148;27;20023;-67
2023/12/29 04:39:21;;;;;;;3.75;1.20;;;;;;;;;;5133873;27;20023;-67
2023/12/29 04:41:47;;;;;;;4.20;1.33;;;;;;;;;;5134061;27;20051;-68
2023/12/29 04:44:12;;;;;;;3.90;1.38;;;;;;;;;;5133741;27;20062;-68
2023/12/29 04:46:38;;;;;;;3.03;1.10;;;;;;;;;;5134129;27;20378;-68
2023/12/29 04:49:03;;;;;;;4.45;1.30;;;;;;;;;;5133774;27;20388;-68
2023/12/29 04:51:29;;;;;;;1.85;1.10;;;;;;;;;;5133832;27;20023;-67
2023/12/29 04:53:55;;;;;;;4.25;1.10;;;;;;;;;;5133716;27;20043;-67
2023/12/29 04:56:20;;;;;;;3.90;1.30;;;;;;;;;;5133844;27;20095;-68
2023/12/29 04:58:46;;;;;;;2.42;1.13;;;;;;;;;;5133742;27;20027;-68
2023/12/29 05:01:11;;;;;;;2.85;1.30;;;;;;;;;;5133599;27;20019;-67
2023/12/29 05:03:37;;;;;;;3.88;1.48;;;;;;;;;;5133838;27;20474;-67
2023/12/29 05:06:02;;;;;;;4.30;1.98;;;;;;;;;;5133762;27;20027;-68
2023/12/29 05:08:28;;;;;;;2.13;1.30;;;;;;;;;;5133740;27;20030;-68
2023/12/29 05:10:53;;;;;;;2.88;1.00;;;;;;;;;;5133453;27;20039;-67
2023/12/29 05:13:18;;;;;;;3.55;1.05;;;;;;;;;;5133377;27;20049;-68
2023/12/29 05:15:44;;;;;;;4.80;1.45;;;;;;;;;;5133579;27;20078;-68
2023/12/29 05:18:09;;;;;;;4.35;1.42;;;;;;;;;;5133657;27;20445;-67
2023/12/29 05:20:35;;;;;;;2.63;1.30;;;;;;;;;;5133728;27;20465;-67
2023/12/29 05:23:00;;;;;;;3.92;1.10;;;;;;;;;;5133606;27;20473;-67
2023/12/29 05:25:26;;;;;;;4.10;1.13;;;;;;;;;;5133541;27;20106;-67
2023/12/29 05:27:51;;;;;;;2.92;1.00;;;;;;;;;;5133353;27;20023;-67
2023/12/29 05:30:17;;;;;;;2.75;1.42;;;;;;;;;;5133519;28;20023;-67
2023/12/29 05:32:42;;;;;;;2.05;1.15;;;;;;;;;;5133294;28;20027;-67
2023/12/29 05:35:07;;;;;;;3.92;1.67;;;;;;;;;;5133396;28;20156;-68
2023/12/29 05:37:33;;;;;;;4.05;1.33;;;;;;;;;;5135796;27;20020;-67
2023/12/29 05:39:58;;;;;;;2.97;1.20;;;;;;;;;;5137181;27;20039;-67
2023/12/29 05:42:24;;;;;;;2.40;1.20;;;;;;;;;;5137142;27;20027;-68
2023/12/29 05:44:49;;;;;;;4.00;1.20;;;;;;;;;;5137151;27;20027;-67
2023/12/29 05:47:17;;;;;;;3.38;1.20;;;;;;;;;;5137484;27;20023;-68
2023/12/29 05:49:42;;;;;;;4.10;1.27;;;;;;;;;;5137462;27;20030;-67
2023/12/29 05:52:08;;;;;;;6.05;1.35;;;;;;;;;;5137502;27;20019;-68
2023/12/29 05:54:34;;;;;;;3.35;1.25;;;;;;;;;;5137242;27;20069;-67
2023/12/29 05:57:00;;;;;;;3.33;1.20;;;;;;;;;;5136954;27;20035;-68
2023/12/29 05:59:25;;;;;;;4.22;1.30;;;;;;;;;;5137402;27;20027;-67
2023/12/29 06:01:51;;;;;;;1.02;0.93;;;;;;;;;;5137153;27;20019;-68
2023/12/29 06:04:16;;;;;;;2.75;1.08;;;;;;;;;;5137091;27;20023;-68
2023/12/29 06:06:42;;;;;;;3.22;1.10;;;;;;;;;;5137220;27;20037;-67
2023/12/29 06:09:10;;;;;;;4.00;1.30;;;;;;;;;;5137062;27;20118;-67
2023/12/29 06:11:36;;;;;;;3.33;1.02;;;;;;;;;;5136918;27;20023;-67
2023/12/29 06:14:01;;;;;;;3.80;1.02;;;;;;;;;;5137072;27;20136;-67
2023/12/29 06:16:27;;;;;;;4.55;1.00;;;;;;;;;;5136976;27;20058;-68
2023/12/29 06:18:53;;;;;;;6.15;2.28;;;;;;;;;;5136573;27;20070;-68
2023/12/29 06:21:19;;;;;;;2.00;1.02;;;;;;;;;;5136897;27;20019;-68
2023/12/29 06:23:44;;;;;;;1.75;1.08;;;;;;;;;;5136846;27;20035;-67
2023/12/29 06:26:17;;;;;;;3.13;1.50;;;;;;;;;;5136597;27;20151;-67
2023/12/29 06:28:43;;;;;;;2.22;0.95;;;;;;;;;;5136608;27;20064;-68
2023/12/29 06:31:09;;;;;;;2.40;1.30;;;;;;;;;;5136716;27;20019;-68
2023/12/29 06:33:34;;;;;;;3.78;1.30;;;;;;;;;;5136711;27;20019;-67
2023/12/29 06:36:00;;;;;;;2.13;1.00;;;;;;;;;;5136644;27;20053;-67
2023/12/29 06:38:26;;;;;;;2.50;1.17;;;;;;;;;;5135999;27;20080;-68
2023/12/29 06:40:51;;;;;;;4.95;1.08;;;;;;;;;;5136281;27;20027;-68
2023/12/29 06:43:16;;;;;;;0.98;0.80;;;;;;;;;;5136453;27;20025;-67
2023/12/29 06:45:42;;;;;;;3.47;1.20;;;;;;;;;;5136112;27;20046;-68
2023/12/29 06:48:07;;;;;;;2.40;1.10;;;;;;;;;;5135922;27;20020;-67
2023/12/29 06:50:33;;;;;;;1.92;1.10;;;;;;;;;;5136304;27;20026;-68
2023/12/29 06:52:58;;;;;;;1.73;1.20;;;;;;;;;;5139176;27;20043;-67
2023/12/29 06:55:25;;;;;;;2.58;1.30;;;;;;;;;;5156877;27;20025;-68
2023/12/29 06:57:51;;;;;;;4.15;1.40;;;;;;;;;;5156949;27;20086;-67
2023/12/29 07:00:16;;;;;;;1.23;0.90;;;;;;;;;;5156905;27;20019;-68
2023/12/29 07:02:42;;;;;;;1.67;0.90;;;;;;;;;;5156824;27;20019;-68
2023/12/29 07:05:07;;;;;;;3.42;1.17;;;;;;;;;;5156904;27;20110;-67
2023/12/29 07:07:34;;;;;;;5.75;1.45;;;;;;;;;;5156435;27;20468;-68
2023/12/29 07:10:00;;;;;;;4.75;1.15;;;;;;;;;;5156743;27;20113;-68
2023/12/29 07:12:25;;;;;;;1.40;0.98;;;;;;;;;;5156658;27;20054;-68
2023/12/29 07:14:50;;;;;;;2.55;1.08;;;;;;;;;;5156439;27;20037;-67
2023/12/29 07:17:16;;;;;;;2.95;1.40;;;;;;;;;;5156524;27;20026;-68
2023/12/29 07:19:41;;;;;;;1.15;0.90;;;;;;;;;;5156473;27;20084;-67
2023/12/29 07:22:07;;;;;;;2.40;1.00;;;;;;;;;;5156144;27;20029;-68
2023/12/29 07:24:35;;;;;;;1.40;1.00;;;;;;;;;;5156392;27;20058;-67
2023/12/29 07:27:00;;;;;;;2.58;0.90;;;;;;;;;;5156208;27;20038;-67
2023/12/29 07:29:26;;;;;;;1.75;0.80;;;;;;;;;;5156170;27;20051;-67
2023/12/29 07:31:51;;;;;;;1.63;0.90;;;;;;;;;;5156345;27;20350;-67
2023/12/29 07:34:16;;;;;;;4.95;1.23;;;;;;;;;;5156228;27;20038;-67
2023/12/29 07:36:42;;;;;;;1.33;0.88;;;;;;;;;;5155860;27;20105;-67
2023/12/29 07:39:08;;;;;;;1.52;0.80;;;;;;;;;;5145047;27;20521;-68
2023/12/29 07:41:34;;;;;;;1.52;0.90;;;;;;;;;;5135323;27;20023;-67
2023/12/29 07:43:59;;;;;;;4.05;1.13;;;;;;;;;;5135214;27;20160;-67
2023/12/29 07:46:26;;;;;;;1.33;1.00;;;;;;;;;;5135054;27;20056;-67
2023/12/29 07:48:52;;;;;;;3.05;1.10;;;;;;;;;;5134990;27;20027;-67
2023/12/29 07:51:18;;;;;;;3.17;0.93;;;;;;;;;;5134763;27;20489;-67
2023/12/29 07:53:43;;;;;;;2.63;1.02;;;;;;;;;;5134785;27;20039;-67
2023/12/29 07:56:10;;;;;;;2.22;0.98;;;;;;;;;;5116526;27;20464;-67
2023/12/29 07:58:36;;;;;;;3.22;1.08;;;;;;;;;;5124959;27;20046;-67
2023/12/29 08:01:01;;;;;;;1.70;0.70;;;;;;;;;;5131110;27;20023;-67
2023/12/29 08:03:26;;;;;;;1.15;0.80;;;;;;;;;;5114068;28;20500;-67
2023/12/29 08:05:52;;;;;;;5.30;1.70;;;;;;;;;;5119221;27;20026;-67
2023/12/29 08:08:17;;;;;;;16.70;3.05;;;;;;;;;;5134633;27;20034;-68
2023/12/29 08:10:43;;;;;;;6.47;2.65;;;;;;;;;;5134592;27;20385;-67
2023/12/29 08:13:09;;;;;;;1.58;0.95;;;;;;;;;;5134083;27;20079;-66
2023/12/29 08:15:35;;;;;;;1.35;0.82;;;;;;;;;;5118806;27;20024;-67
2023/12/29 08:18:00;;;;;;;2.45;1.00;;;;;;;;;;5113930;28;20023;-67
2023/12/29 08:20:26;;;;;;;2.00;1.10;;;;;;;;;;5113535;28;20035;-67
2023/12/29 08:22:51;;;;;;;2.63;1.08;;;;;;;;;;5113708;28;20378;-67
2023/12/29 08:25:17;;;;;;;2.92;1.30;;;;;;;;;;5113706;28;20027;-66
2023/12/29 08:27:42;;;;;;;1.85;1.10;;;;;;;;;;5113747;28;20081;-66
2023/12/29 08:30:08;;;;;;;1.33;0.85;;;;;;;;;;5113718;28;20467;-67
2023/12/29 08:32:33;;;;;;;2.10;1.10;;;;;;;;;;5128012;27;20035;-67
2023/12/29 08:34:59;;;;;;;2.28;1.00;;;;;;;;;;5133731;27;20023;-67
2023/12/29 08:37:24;;;;;;;52.53;8.18;;;;;;;;;;5133993;27;20031;-66
2023/12/29 08:39:50;;;;;;;15.18;3.40;;;;;;;;;;5133696;27;20019;-67
2023/12/29 08:42:16;;;;;;;11.45;3.17;;;;;;;;;;5133946;27;20023;-67
2023/12/29 08:44:41;;;;;;;9.00;2.58;;;;;;;;;;5133817;27;20027;-67
2023/12/29 08:47:08;;;;;;;6.25;2.22;;;;;;;;;;5133550;27;20511;-68
2023/12/29 08:49:37;;;;;;;8.93;3.08;;;;;;;;;;5133440;27;20028;-67
2023/12/29 08:52:03;;;;;;;8.63;2.57;;;;;;;;;;5133780;27;20069;-67
2023/12/29 08:54:29;;;;;;;9.95;2.90;;;;;;;;;;5133668;27;20101;-67
2023/12/29 08:56:55;;;;;;;11.98;2.50;;;;;;;;;;5133247;27;20054;-68
2023/12/29 08:59:20;;;;;;;3.45;1.08;;;;;;;;;;5133491;27;20401;-68
2023/12/29 09:01:46;;;;;;;1.92;1.05;;;;;;;;;;5133449;27;20015;-67
2023/12/29 09:04:12;;;;;;;7.13;3.28;;;;;;;;;;5133388;27;20048;-68
2023/12/29 09:06:37;;;;;;;3.97;1.75;;;;;;;;;;5133612;27;20026;-67
2023/12/29 09:09:03;;;;;;;6.07;2.17;;;;;;;;;;5133315;27;20019;-68
2023/12/29 09:11:28;;;;;;;3.72;1.58;;;;;;;;;;5133296;27;20066;-67
2023/12/29 09:13:54;;;;;;;3.22;1.00;;;;;;;;;;5133537;27;20431;-68
2023/12/29 09:16:19;;;;;;;1.23;0.90;;;;;;;;;;5133342;27;20023;-67
2023/12/29 09:18:45;;;;;;;1.40;1.00;;;;;;;;;;5133123;27;20027;-67
2023/12/29 09:21:11;;;;;;;2.25;1.00;;;;;;;;;;5133198;27;20019;-68
2023/12/29 09:23:38;;;;;;;1.83;1.00;;;;;;;;;;5133304;27;20050;-68
2023/12/29 09:26:04;;;;;;;2.28;0.90;;;;;;;;;;5133169;27;20091;-68
2023/12/29 09:28:32;;;;;;;3.85;1.00;;;;;;;;;;5133276;27;20505;-67
2023/12/29 09:30:57;;;;;;;1.58;0.90;;;;;;;;;;5133180;27;20070;-69
2023/12/29 09:33:24;;;;;;;2.05;0.88;;;;;;;;;;5132986;27;20140;-66
2023/12/29 09:35:50;;;;;;;1.58;0.80;;;;;;;;;;5133098;27;20042;-68
2023/12/29 09:38:16;;;;;;;3.60;0.95;;;;;;;;;;5132970;28;20046;-66
2023/12/29 09:40:41;;;;;;;2.40;1.10;;;;;;;;;;5132757;28;20131;-69
2023/12/29 09:43:09;;;;;;;2.05;1.38;;;;;;;;;;5132855;27;20027;-68
2023/12/29 09:45:40;;;;;;;3.65;0.95;;;;;;;;;;5132740;27;20459;-67
2023/12/29 09:48:12;;;;;;;3.72;1.10;;;;;;;;;;5132614;28;20023;-66
2023/12/29 09:50:37;;;;;;;1.88;0.90;;;;;;;;;;5132798;28;20575;-68
2023/12/29 09:53:04;;;;;;;1.88;0.88;;;;;;;;;;5132550;28;20051;-66
2023/12/29 09:55:31;;;;;;;2.88;1.05;;;;;;;;;;5132707;28;20035;-68
2023/12/29 09:57:59;;;;;;;1.17;0.88;;;;;;;;;;5132976;28;20382;-66
2023/12/29 10:00:25;;;;;;;5.20;1.38;;;;;;;;;;5132833;28;20031;-66
2023/12/29 10:02:54;;;;;;;3.42;1.10;;;;;;;;;;5132246;28;20039;-66
2023/12/29 10:05:20;;;;;;;2.45;1.20;;;;;;;;;;5132685;28;20027;-66
2023/12/29 10:07:47;;;;;;;2.42;1.05;;;;;;;;;;5133021;27;20373;-66
2023/12/29 10:10:16;;;;;;;2.08;1.10;;;;;;;;;;5132683;27;20473;-66
2023/12/29 10:12:44;;;;;;;4.80;1.70;;;;;;;;;;5132836;27;20035;-66
2023/12/29 10:15:38;;;;;;;3.17;0.95;;;;;;;;;;5132531;27;20031;-66
2023/12/29 10:18:10;;;;;;;1.65;1.00;;;;;;;;;;5132617;27;20488;-66
2023/12/29 10:20:49;;;;;;;1.75;0.93;;;;;;;;;;5132651;28;20039;-67
2023/12/29 10:23:22;;;;;;;2.42;0.80;;;;;;;;;;5133102;27;20447;-66
2023/12/29 10:25:49;;;;;;;2.20;0.90;;;;;;;;;;5136709;27;20019;-66
2023/12/29 10:28:17;;;;;;;0.90;0.80;;;;;;;;;;5136642;27;20050;-66
2023/12/29 10:30:42;;;;;;;1.67;0.90;;;;;;;;;;5136332;27;20335;-67
2023/12/29 10:33:08;;;;;;;2.13;1.08;;;;;;;;;;5136311;27;20042;-66
2023/12/29 10:35:37;;;;;;;3.05;1.10;;;;;;;;;;5136286;27;20019;-67
2023/12/29 10:38:12;;;;;;;2.25;1.00;;;;;;;;;;5136293;27;20050;-67
2023/12/29 10:40:38;;;;;;;2.15;1.10;;;;;;;;;;5135895;27;20023;-66
2023/12/29 10:43:08;;;;;;;1.85;1.10;;;;;;;;;;5136022;27;20035;-66
2023/12/29 10:45:34;;;;;;;1.90;1.10;;;;;;;;;;5135759;27;20465;-67
2023/12/29 10:48:00;;;;;;;2.83;1.33;;;;;;;;;;5135984;27;20042;-66
2023/12/29 10:50:27;;;;;;;2.22;1.23;;;;;;;;;;5135959;27;20448;-67
2023/12/29 10:53:10;;;;;;;2.67;1.23;;;;;;;;;;5135591;27;20074;-67
2023/12/29 10:55:36;;;;;;;3.20;1.52;;;;;;;;;;5136007;27;20023;-67
2023/12/29 10:58:01;;;;;;;3.10;1.40;;;;;;;;;;5135929;27;20034;-67
2023/12/29 11:00:30;;;;;;;1.35;0.95;;;;;;;;;;5135803;27;20034;-67
2023/12/29 11:02:56;;;;;;;8.45;1.58;;;;;;;;;;5135406;27;20056;-67
2023/12/29 11:05:25;;;;;;;1.23;0.70;;;;;;;;;;5135724;27;20145;-66
2023/12/29 11:07:53;;;;;;;5.38;1.35;;;;;;;;;;5135660;27;20031;-66
2023/12/29 11:10:20;;;;;;;2.97;1.20;;;;;;;;;;5135670;27;20126;-67
2023/12/29 11:12:47;;;;;;;5.35;1.10;;;;;;;;;;5135601;27;20035;-66
2023/12/29 11:15:14;;;;;;;3.08;1.05;;;;;;;;;;5135122;27;20023;-66
2023/12/29 11:17:49;;;;;;;2.40;1.00;;;;;;;;;;5135629;27;20027;-65
2023/12/29 11:20:16;;;;;;;2.55;0.90;;;;;;;;;;5135487;27;20469;-66
2023/12/29 11:22:42;;;;;;;2.05;0.90;;;;;;;;;;5135871;27;20027;-65
2023/12/29 11:25:08;;;;;;;7.38;1.17;;;;;;;;;;5117107;27;20137;-67
2023/12/29 11:27:34;;;;;;;0.75;0.65;;;;;;;;;;5135426;27;20062;-67
2023/12/29 11:30:03;;;;;;;1.50;0.90;;;;;;;;;;5135201;27;20109;-67
2023/12/29 11:32:46;;;;;;;6.35;1.10;;;;;;;;;;5135269;27;20050;-67
2023/12/29 11:35:26;;;;;;;4.85;0.90;;;;;;;;;;5133647;27;20020;-67
2023/12/29 11:38:33;;;;;;;3.63;1.13;;;;;;;;;;5135226;27;20051;-67
2023/12/29 11:41:21;;;;;;;4.20;1.00;;;;;;;;;;5134682;27;20371;-68
2023/12/29 11:43:59;;;;;;;4.03;0.90;;;;;;;;;;5134854;27;20063;-68
2023/12/29 11:46:43;;;;;;;5.20;1.10;;;;;;;;;;5122504;27;20054;-67
2023/12/29 11:49:08;;;;;;;2.08;1.00;;;;;;;;;;5134710;27;20108;-68
2023/12/29 11:51:34;;;;;;;1.60;0.82;;;;;;;;;;5134637;27;20029;-68
2023/12/29 11:54:00;;;;;;;3.15;1.00;;;;;;;;;;5134007;27;20495;-68
2023/12/29 11:56:36;;;;;;;4.18;1.20;;;;;;;;;;5115508;27;20115;-67
2023/12/29 11:59:31;;;;;;;2.13;0.80;;;;;;;;;;5134422;27;20431;-68
2023/12/29 12:02:06;;;;;;;4.45;1.10;;;;;;;;;;5117137;27;20035;-67
2023/12/29 12:04:44;;;;;;;6.18;1.30;;;;;;;;;;5134660;27;20500;-68
2023/12/29 12:07:36;;;;;;;2.85;0.90;;;;;;;;;;5134361;27;20023;-68
2023/12/29 12:10:20;;;;;;;3.50;1.02;;;;;;;;;;5134533;27;20030;-68
2023/12/29 12:12:45;;;;;;;4.72;0.80;;;;;;;;;;5134312;27;20047;-67
2023/12/29 12:15:29;;;;;;;2.92;0.88;;;;;;;;;;5134193;27;20476;-69
2023/12/29 12:17:56;;;;;;;4.38;1.00;;;;;;;;;;5134252;27;20034;-68
2023/12/29 12:20:22;;;;;;;3.78;0.80;;;;;;;;;;5134254;27;20027;-68
2023/12/29 12:22:58;;;;;;;5.13;1.00;;;;;;;;;;5134222;27;20516;-68
2023/12/29 12:25:30;;;;;;;3.65;0.90;;;;;;;;;;5134173;27;20031;-68
2023/12/29 12:27:56;;;;;;;1.67;1.00;;;;;;;;;;5134057;27;20489;-68
2023/12/29 12:30:22;;;;;;;4.00;1.10;;;;;;;;;;5133888;27;20560;-68
2023/12/29 12:33:02;;;;;;;3.85;1.17;;;;;;;;;;5133926;27;20019;-68
2023/12/29 12:35:28;;;;;;;3.90;1.23;;;;;;;;;;5133877;27;20028;-68
2023/12/29 12:38:13;;;;;;;4.03;1.08;;;;;;;;;;5133752;27;20027;-69
2023/12/29 12:40:39;;;;;;;4.75;1.23;;;;;;;;;;5133530;27;20445;-68
2023/12/29 12:43:06;;;;;;;3.03;1.00;;;;;;;;;;5133376;27;20050;-68
2023/12/29 12:45:41;;;;;;;5.03;1.20;;;;;;;;;;5133009;27;20019;-68
2023/12/29 12:48:23;;;;;;;4.43;1.40;;;;;;;;;;5133656;27;20144;-67
2023/12/29 12:50:49;;;;;;;4.65;1.30;;;;;;;;;;5133374;27;20019;-68
2023/12/29 12:53:20;;;;;;;4.85;1.65;;;;;;;;;;5133348;27;20047;-68
2023/12/29 12:55:49;;;;;;;7.30;1.55;;;;;;;;;;5133153;27;20530;-66
2023/12/29 12:58:16;;;;;;;5.22;1.45;;;;;;;;;;5133445;27;20431;-68
2023/12/29 13:00:42;;;;;;;5.20;1.40;;;;;;;;;;5132693;27;20076;-68
2023/12/29 13:03:08;;;;;;;6.70;1.75;;;;;;;;;;5132484;27;20031;-68
2023/12/29 13:05:35;;;;;;;3.08;1.33;;;;;;;;;;5133405;27;20354;-69
2023/12/29 13:08:03;;;;;;;3.70;1.73;;;;;;;;;;5133151;27;20015;-69
2023/12/29 13:10:28;;;;;;;2.90;1.08;;;;;;;;;;5133119;27;20023;-68
2023/12/29 13:12:54;;;;;;;2.55;1.15;;;;;;;;;;5133347;27;20019;-68
2023/12/29 13:15:20;;;;;;;2.40;1.02;;;;;;;;;;5133235;27;20023;-69
2023/12/29 13:17:55;;;;;;;1.98;1.23;;;;;;;;;;5132121;27;20501;-69
2023/12/29 13:20:21;;;;;;;2.72;0.90;;;;;;;;;;5133200;27;20030;-68
2023/12/29 13:22:49;;;;;;;2.20;1.00;;;;;;;;;;5133215;27;20370;-68
2023/12/29 13:25:20;;;;;;;2.17;0.90;;;;;;;;;;5132966;27;20027;-68
2023/12/29 13:27:47;;;;;;;3.80;0.90;;;;;;;;;;5133218;27;20038;-69
2023/12/29 13:30:14;;;;;;;2.20;0.90;;;;;;;;;;5133135;27;20039;-69
2023/12/29 13:32:41;;;;;;;2.85;1.00;;;;;;;;;;5133246;27;20102;-68
2023/12/29 13:35:19;;;;;;;0.95;0.60;;;;;;;;;;5132932;27;20034;-69
2023/12/29 13:37:51;;;;;;;2.33;0.70;;;;;;;;;;5133134;28;20027;-68
2023/12/29 13:40:37;;;;;;;1.73;0.68;;;;;;;;;;5126314;28;20031;-69
2023/12/29 13:43:03;;;;;;;7.00;1.55;;;;;;;;;;5132999;28;20043;-68
2023/12/29 13:45:31;;;;;;;5.25;0.98;;;;;;;;;;5132574;28;20054;-68
2023/12/29 13:47:58;;;;;;;1.45;0.70;;;;;;;;;;5132990;28;20019;-69
2023/12/29 13:50:24;;;;;;;3.75;1.35;;;;;;;;;;5132965;28;20023;-68
2023/12/29 13:52:50;;;;;;;3.13;0.80;;;;;;;;;;5132501;28;20036;-68
2023/12/29 13:55:22;;;;;;;4.05;0.93;;;;;;;;;;5132565;28;20074;-67
2023/12/29 13:57:48;;;;;;;2.78;1.02;;;;;;;;;;5134001;27;20431;-67
2023/12/29 14:00:26;;;;;;;3.97;1.05;;;;;;;;;;5136971;27;20019;-67
2023/12/29 14:02:51;;;;;;;6.28;1.38;;;;;;;;;;5136590;27;20102;-68
2023/12/29 14:05:23;;;;;;;3.30;1.02;;;;;;;;;;5136709;27;20602;-68
2023/12/29 14:08:21;;;;;;;3.70;1.33;;;;;;;;;;5136990;27;20024;-67
2023/12/29 14:10:46;;;;;;;6.82;1.40;;;;;;;;;;5053206;28;20483;-67
2023/12/29 14:13:14;;;;;;;5.63;1.55;;;;;;;;;;5053185;28;20065;-68
2023/12/29 14:15:41;;;;;;;6.53;0.95;;;;;;;;;;5053273;28;20041;-70
2023/12/29 14:18:12;;;;;;;3.38;1.08;;;;;;;;;;5053050;28;20033;-68
2023/12/29 14:20:39;;;;;;;3.40;0.90;;;;;;;;;;5053403;28;20087;-67
2023/12/29 14:23:05;;;;;;;4.65;1.88;;;;;;;;;;5052722;28;20827;-67
2023/12/29 14:25:36;;;;;;;5.47;1.10;;;;;;;;;;5053137;28;20044;-69
2023/12/29 14:28:22;;;;;;;2.80;1.08;;;;;;;;;;5053069;28;20153;-67
2023/12/29 14:30:48;;;;;;;3.50;1.10;;;;;;;;;;5052533;28;20052;-66
2023/12/29 14:33:13;;;;;;;4.65;1.38;;;;;;;;;;5052940;28;20033;-68
2023/12/29 14:35:39;;;;;;;3.67;1.13;;;;;;;;;;5045557;28;20072;-71
2023/12/29 14:38:05;;;;;;;2.65;1.08;;;;;;;;;;5032768;28;20084;-68
2023/12/29 14:40:34;;;;;;;2.85;1.30;;;;;;;;;;5032766;28;20128;-68
2023/12/29 14:43:00;;;;;;;2.33;0.98;;;;;;;;;;5033082;28;20366;-68
2023/12/29 14:45:25;;;;;;;3.45;1.17;;;;;;;;;;5032647;28;20036;-69